Time;durP1;ratioP1;P1;durP2;ratioP2;P2;SDS_P1;SDS_P2;PMS_P1;PMS_P2;Temp;Humidity;BMP_temperature;BMP_pressure;BME280_temperature;BME280_humidity;BME280_pressure;Samples;Min_cycle;Max_cycle;Signal;HPM_P1;HPM_P2
2021/03/24 00:00:21;;;;;;;22.10;12.47;;;0.10;99.90;;;;;;5087952;28;20396;-73
2021/03/24 00:02:47;;;;;;;24.30;14.47;;;0.10;99.90;;;;;;5083607;28;20512;-72
2021/03/24 00:05:15;;;;;;;23.00;11.77;;;0.00;99.90;;;;;;5082457;28;20493;-72
2021/03/24 00:07:41;;;;;;;23.20;11.53;;;0.10;99.90;;;;;;5085552;28;20191;-72
2021/03/24 00:10:09;;;;;;;25.33;13.10;;;0.10;99.90;;;;;;5087627;28;20953;-72
2021/03/24 00:12:35;;;;;;;23.50;13.17;;;0.00;99.90;;;;;;5087127;28;20442;-72
2021/03/24 00:15:03;;;;;;;25.77;13.23;;;0.00;99.90;;;;;;5086924;28;20811;-72
2021/03/24 00:17:29;;;;;;;23.20;13.03;;;0.00;99.90;;;;;;5081514;28;20847;-72
2021/03/24 00:19:54;;;;;;;22.77;12.43;;;0.00;99.90;;;;;;5084446;28;20418;-73
2021/03/24 00:22:20;;;;;;;26.23;11.50;;;0.00;99.90;;;;;;5088408;28;20205;-72
2021/03/24 00:24:45;;;;;;;21.13;12.20;;;0.00;99.90;;;;;;5083330;28;20215;-71
2021/03/24 00:27:11;;;;;;;25.80;13.40;;;-0.10;99.90;;;;;;5083159;28;20179;-74
2021/03/24 00:29:36;;;;;;;25.00;15.73;;;0.00;99.90;;;;;;5082168;28;20231;-73
2021/03/24 00:32:02;;;;;;;31.33;14.23;;;-0.10;99.90;;;;;;5083817;28;20207;-72
2021/03/24 00:34:28;;;;;;;26.43;13.90;;;-0.10;99.90;;;;;;5081314;28;20537;-72
2021/03/24 00:36:53;;;;;;;24.97;12.97;;;-0.10;99.90;;;;;;5087489;28;20445;-73
2021/03/24 00:39:19;;;;;;;32.97;13.77;;;-0.10;99.90;;;;;;5086938;28;20268;-72
2021/03/24 00:41:44;;;;;;;25.77;12.00;;;-0.10;99.90;;;;;;5082763;28;20212;-72
2021/03/24 00:44:10;;;;;;;26.33;11.50;;;-0.20;99.90;;;;;;5081464;28;20595;-73
2021/03/24 00:46:35;;;;;;;29.03;13.00;;;-0.20;99.90;;;;;;5080410;28;20673;-72
2021/03/24 00:49:01;;;;;;;26.80;12.67;;;-0.10;99.90;;;;;;5083771;28;20253;-72
2021/03/24 00:51:26;;;;;;;24.10;12.90;;;-0.10;99.90;;;;;;5080583;28;20205;-73
2021/03/24 00:53:52;;;;;;;37.13;12.90;;;-0.10;99.90;;;;;;5083588;28;20672;-72
2021/03/24 00:56:17;;;;;;;31.10;13.20;;;-0.20;99.90;;;;;;5081649;28;20738;-72
2021/03/24 00:58:43;;;;;;;23.30;13.80;;;-0.20;99.90;;;;;;5082504;28;20209;-72
2021/03/24 01:01:08;;;;;;;26.20;14.70;;;-0.20;99.90;;;;;;5082582;28;20207;-72
2021/03/24 01:03:36;;;;;;;27.77;12.97;;;-0.20;99.90;;;;;;5081025;28;20203;-72
2021/03/24 01:06:02;;;;;;;23.57;12.70;;;-0.30;99.90;;;;;;5083405;28;20533;-72
2021/03/24 01:08:28;;;;;;;22.67;13.70;;;-0.30;99.90;;;;;;5079478;28;20408;-72
2021/03/24 01:10:55;;;;;;;21.83;11.80;;;-0.30;99.90;;;;;;5083413;28;20440;-73
2021/03/24 01:13:21;;;;;;;22.20;12.37;;;-0.40;99.90;;;;;;5080700;28;20219;-72
2021/03/24 01:15:47;;;;;;;29.30;14.70;;;-0.40;99.90;;;;;;5081786;28;20390;-72
2021/03/24 01:18:13;;;;;;;22.13;13.27;;;-0.40;99.90;;;;;;5081580;28;20400;-72
2021/03/24 01:20:41;;;;;;;22.23;12.83;;;-0.40;99.90;;;;;;5081330;28;20424;-72
2021/03/24 01:23:07;;;;;;;27.50;13.20;;;-0.40;99.90;;;;;;5080982;28;20410;-72
2021/03/24 01:25:33;;;;;;;25.93;13.03;;;-0.40;99.90;;;;;;5080521;28;20444;-74
2021/03/24 01:27:58;;;;;;;29.47;13.53;;;-0.40;99.90;;;;;;5082091;28;20433;-73
2021/03/24 01:30:28;;;;;;;24.17;13.33;;;-0.50;99.90;;;;;;5079699;28;20487;-72
2021/03/24 01:32:53;;;;;;;26.47;13.13;;;-0.50;99.90;;;;;;5082961;28;20187;-72
2021/03/24 01:35:20;;;;;;;21.80;13.00;;;-0.50;99.90;;;;;;5080640;28;21207;-72
2021/03/24 01:37:46;;;;;;;24.57;14.80;;;-0.50;99.90;;;;;;5081892;28;20200;-71
2021/03/24 01:40:37;;;;;;;28.23;13.80;;;-0.50;99.90;;;;;;5081287;28;20464;-72
2021/03/24 01:43:07;;;;;;;27.43;13.50;;;-0.50;99.90;;;;;;5081919;28;20443;-73
2021/03/24 01:45:33;;;;;;;27.23;13.17;;;-0.50;99.90;;;;;;5074299;28;20413;-72
2021/03/24 01:48:04;;;;;;;29.17;14.73;;;-0.60;99.90;;;;;;5082106;28;20419;-71
2021/03/24 01:50:36;;;;;;;28.73;14.40;;;-0.60;99.90;;;;;;5078230;28;20212;-73
2021/03/24 01:53:02;;;;;;;28.83;13.60;;;-0.60;99.90;;;;;;5082917;28;20994;-73
2021/03/24 01:55:28;;;;;;;22.80;13.23;;;-0.70;99.90;;;;;;5079721;28;20415;-72
2021/03/24 01:57:55;;;;;;;38.73;15.10;;;-0.70;99.90;;;;;;5080064;28;20433;-72
2021/03/24 02:00:30;;;;;;;32.53;14.07;;;-0.70;99.90;;;;;;5081203;28;20426;-72
2021/03/24 02:02:56;;;;;;;28.27;13.87;;;-0.70;99.90;;;;;;5079778;28;20455;-71
2021/03/24 02:05:22;;;;;;;25.33;13.80;;;-0.70;99.90;;;;;;5082554;28;20449;-72
2021/03/24 02:07:52;;;;;;;26.17;14.00;;;-0.70;99.90;;;;;;5080518;28;20688;-72
2021/03/24 02:10:23;;;;;;;28.33;14.00;;;-0.70;99.90;;;;;;5081886;28;20713;-72
2021/03/24 02:12:53;;;;;;;27.17;13.90;;;-0.70;99.90;;;;;;5076349;28;20481;-72
2021/03/24 02:15:25;;;;;;;28.40;14.00;;;-0.80;99.90;;;;;;5079722;28;20408;-72
2021/03/24 02:17:52;;;;;;;21.63;11.70;;;-0.80;99.90;;;;;;5081034;28;20435;-73
2021/03/24 02:20:36;;;;;;;21.97;12.00;;;-0.80;99.90;;;;;;5079577;28;20465;-72
2021/03/24 02:23:20;;;;;;;21.10;12.13;;;-0.80;99.90;;;;;;5079041;28;20497;-72
2021/03/24 02:25:58;;;;;;;22.80;13.00;;;-0.80;99.90;;;;;;5079195;28;20448;-72
2021/03/24 02:28:25;;;;;;;22.27;11.80;;;-0.80;99.90;;;;;;5080471;28;20501;-72
2021/03/24 02:30:51;;;;;;;21.90;12.93;;;-0.80;99.90;;;;;;5079330;28;20820;-71
2021/03/24 02:33:22;;;;;;;23.57;12.90;;;-0.80;99.90;;;;;;5081397;28;20829;-72
2021/03/24 02:35:56;;;;;;;25.77;13.10;;;-0.80;99.90;;;;;;5082005;28;20470;-72
2021/03/24 02:38:24;;;;;;;23.13;12.30;;;-0.80;99.90;;;;;;5082166;28;20429;-72
2021/03/24 02:40:52;;;;;;;26.07;13.47;;;-0.80;99.90;;;;;;5078524;28;21248;-72
2021/03/24 02:43:19;;;;;;;26.00;13.20;;;-0.80;99.90;;;;;;5078399;28;20531;-72
2021/03/24 02:45:46;;;;;;;22.90;12.83;;;-0.80;99.90;;;;;;5080751;28;20441;-72
2021/03/24 02:48:20;;;;;;;26.67;13.90;;;-0.80;99.90;;;;;;5079720;28;20422;-72
2021/03/24 02:50:46;;;;;;;22.17;13.00;;;-0.80;99.90;;;;;;5077710;28;20444;-72
2021/03/24 02:53:14;;;;;;;19.60;11.67;;;-0.80;99.90;;;;;;5080538;28;20425;-72
2021/03/24 02:55:41;;;;;;;25.87;12.63;;;-0.90;99.90;;;;;;5079210;28;20454;-71
2021/03/24 02:58:12;;;;;;;23.67;12.10;;;-0.90;99.90;;;;;;5077663;28;20504;-71
2021/03/24 03:00:39;;;;;;;24.23;13.03;;;-0.90;99.90;;;;;;5080373;28;20450;-72
2021/03/24 03:03:12;;;;;;;29.47;13.13;;;-0.90;99.90;;;;;;5079030;28;20433;-71
2021/03/24 03:05:39;;;;;;;22.27;11.87;;;-1.00;99.90;;;;;;5079807;28;20418;-71
2021/03/24 03:08:12;;;;;;;18.57;11.07;;;-1.00;99.90;;;;;;5075487;28;20450;-72
2021/03/24 03:11:02;;;;;;;20.00;12.20;;;-1.00;99.90;;;;;;5080895;28;20443;-72
2021/03/24 03:13:49;;;;;;;25.83;12.17;;;-1.00;99.90;;;;;;5079515;28;20421;-71
2021/03/24 03:16:30;;;;;;;29.63;13.20;;;-1.10;99.90;;;;;;5080727;28;20423;-71
2021/03/24 03:19:07;;;;;;;22.93;11.90;;;-1.00;99.90;;;;;;5076676;28;20440;-71
2021/03/24 03:21:43;;;;;;;21.70;12.67;;;-1.00;99.90;;;;;;5078973;28;20449;-71
2021/03/24 03:24:10;;;;;;;17.00;11.17;;;-1.10;99.90;;;;;;5080703;28;20487;-71
2021/03/24 03:26:40;;;;;;;24.00;12.37;;;-1.10;99.90;;;;;;5079470;28;20908;-72
2021/03/24 03:29:12;;;;;;;24.63;12.37;;;-1.00;99.90;;;;;;5078308;28;20438;-71
2021/03/24 03:31:39;;;;;;;21.97;11.73;;;-1.00;99.90;;;;;;5079399;28;20436;-72
2021/03/24 03:34:09;;;;;;;33.00;12.47;;;-1.00;99.90;;;;;;5075686;28;20441;-71
2021/03/24 03:36:37;;;;;;;22.13;12.00;;;-1.00;99.90;;;;;;5079099;28;20426;-71
2021/03/24 03:39:05;;;;;;;19.47;12.60;;;-1.00;99.90;;;;;;5081105;28;20495;-71
2021/03/24 03:41:33;;;;;;;24.57;12.43;;;-1.00;99.90;;;;;;5081166;28;20504;-71
2021/03/24 03:43:59;;;;;;;30.87;13.73;;;-1.10;99.90;;;;;;5084345;28;20423;-72
2021/03/24 03:46:30;;;;;;;23.27;12.43;;;-1.10;99.90;;;;;;5081862;28;20432;-71
2021/03/24 03:48:55;;;;;;;20.23;11.73;;;-1.10;99.90;;;;;;5080998;28;20434;-71
2021/03/24 03:51:35;;;;;;;23.57;11.50;;;-1.10;99.90;;;;;;5084382;28;20499;-71
2021/03/24 03:54:11;;;;;;;27.13;11.90;;;-1.20;99.90;;;;;;5082559;28;20357;-72
2021/03/24 03:56:48;;;;;;;17.37;11.17;;;-1.20;99.90;;;;;;5081880;28;20434;-71
2021/03/24 03:59:49;;;;;;;28.27;13.50;;;-1.20;99.90;;;;;;5083650;28;20477;-72
2021/03/24 04:02:18;;;;;;;24.70;11.50;;;-1.20;99.90;;;;;;5082819;28;20446;-71
2021/03/24 04:04:48;;;;;;;23.30;13.37;;;-1.20;99.90;;;;;;5082704;28;20946;-74
2021/03/24 04:07:33;;;;;;;19.83;10.77;;;-1.20;99.90;;;;;;5083709;28;20794;-73
2021/03/24 04:10:01;;;;;;;21.33;12.67;;;-1.20;99.90;;;;;;5083019;28;21434;-71
2021/03/24 04:12:29;;;;;;;18.83;11.60;;;-1.20;99.90;;;;;;5080814;28;20474;-71
2021/03/24 04:14:55;;;;;;;22.07;12.00;;;-1.30;99.90;;;;;;5084871;28;20846;-72
2021/03/24 04:17:29;;;;;;;24.20;12.03;;;-1.20;99.90;;;;;;5084399;28;20514;-71
2021/03/24 04:19:58;;;;;;;19.50;11.13;;;-1.20;99.90;;;;;;5081616;28;20509;-71
2021/03/24 04:22:27;;;;;;;23.70;12.37;;;-1.30;99.90;;;;;;5085242;28;20436;-72
2021/03/24 04:24:55;;;;;;;22.07;13.13;;;-1.30;99.90;;;;;;5081598;28;20401;-72
2021/03/24 04:27:25;;;;;;;22.37;11.57;;;-1.30;99.90;;;;;;5083433;28;20445;-71
2021/03/24 04:29:59;;;;;;;21.00;12.80;;;-1.30;99.90;;;;;;5083936;28;20966;-71
2021/03/24 04:32:25;;;;;;;28.97;13.00;;;-1.30;99.90;;;;;;5080510;28;21013;-71
2021/03/24 04:34:51;;;;;;;24.73;11.73;;;-1.30;99.90;;;;;;5082263;28;20405;-71
2021/03/24 04:37:28;;;;;;;20.30;12.57;;;-1.30;99.90;;;;;;5083917;28;20975;-71
2021/03/24 04:40:05;;;;;;;22.27;12.37;;;-1.30;99.90;;;;;;5081201;28;20540;-71
2021/03/24 04:42:38;;;;;;;28.73;12.60;;;-1.30;99.90;;;;;;5077074;28;20440;-71
2021/03/24 04:45:17;;;;;;;23.63;12.63;;;-1.30;99.90;;;;;;5083839;28;21183;-73
2021/03/24 04:47:50;;;;;;;22.23;11.80;;;-1.40;99.90;;;;;;5081737;28;20441;-71
2021/03/24 04:50:45;;;;;;;18.67;12.40;;;-1.40;99.90;;;;;;5086049;28;20580;-71
2021/03/24 04:53:15;;;;;;;25.23;12.50;;;-1.40;99.90;;;;;;5082482;28;20435;-71
2021/03/24 04:55:41;;;;;;;23.30;14.27;;;-1.40;99.90;;;;;;5080778;28;20995;-73
2021/03/24 04:58:09;;;;;;;27.63;12.20;;;-1.40;99.90;;;;;;5079836;28;20415;-72
2021/03/24 05:00:47;;;;;;;21.23;12.07;;;-1.40;99.90;;;;;;5081094;28;20428;-71
2021/03/24 05:03:18;;;;;;;22.97;12.63;;;-1.40;99.90;;;;;;5077958;28;20446;-72
2021/03/24 05:05:48;;;;;;;24.57;13.00;;;-1.40;99.90;;;;;;5082183;28;20389;-73
2021/03/24 05:08:31;;;;;;;23.83;13.70;;;-1.40;99.90;;;;;;5081726;28;20466;-71
2021/03/24 05:11:01;;;;;;;21.10;12.53;;;-1.40;99.90;;;;;;5082739;28;20468;-71
2021/03/24 05:13:35;;;;;;;26.53;12.80;;;-1.40;99.90;;;;;;5080150;28;20410;-72
2021/03/24 05:16:16;;;;;;;26.30;13.40;;;-1.40;99.90;;;;;;5082371;28;20405;-71
2021/03/24 05:18:43;;;;;;;21.17;13.13;;;-1.40;99.90;;;;;;5081600;28;20437;-71
2021/03/24 05:21:46;;;;;;;25.40;13.37;;;-1.40;99.90;;;;;;5083115;28;20450;-72
2021/03/24 05:24:17;;;;;;;27.43;11.80;;;-1.30;99.90;;;;;;5081068;28;21144;-68
2021/03/24 05:26:48;;;;;;;20.47;12.27;;;-1.30;99.90;;;;;;5081086;28;20486;-70
2021/03/24 05:29:21;;;;;;;27.27;14.87;;;-1.20;99.90;;;;;;5081595;28;20532;-69
2021/03/24 05:31:53;;;;;;;19.97;11.90;;;-1.20;99.90;;;;;;5083196;28;20471;-70
2021/03/24 05:34:31;;;;;;;21.30;12.87;;;-1.20;99.90;;;;;;5086039;28;20927;-69
2021/03/24 05:37:00;;;;;;;20.40;11.97;;;-1.20;99.90;;;;;;5085024;28;20475;-70
2021/03/24 05:39:29;;;;;;;25.53;12.90;;;-1.20;99.90;;;;;;5079964;28;20426;-70
2021/03/24 05:42:19;;;;;;;20.90;12.70;;;-1.20;99.90;;;;;;5081781;28;20592;-67
2021/03/24 05:44:47;;;;;;;30.00;13.63;;;-1.10;99.90;;;;;;5083634;28;20797;-70
2021/03/24 05:47:36;;;;;;;23.13;13.57;;;-1.10;99.90;;;;;;5073389;28;20432;-70
2021/03/24 05:50:19;;;;;;;22.23;12.23;;;-1.00;99.90;;;;;;5082462;28;20592;-70
2021/03/24 05:53:14;;;;;;;23.93;13.73;;;-0.90;99.90;;;;;;5080751;28;20457;-70
2021/03/24 05:55:58;;;;;;;27.30;13.53;;;-0.90;99.90;;;;;;5079667;28;20430;-71
2021/03/24 05:58:47;;;;;;;18.50;11.90;;;-0.70;99.90;;;;;;5079026;28;20439;-70
2021/03/24 06:01:18;;;;;;;21.50;14.13;;;-0.60;99.90;;;;;;5084795;28;20814;-70
2021/03/24 06:04:04;;;;;;;22.57;12.90;;;-0.40;99.90;;;;;;5083806;28;20488;-70
2021/03/24 06:07:08;;;;;;;30.70;14.47;;;-0.10;99.90;;;;;;5079547;28;20407;-71
2021/03/24 06:09:55;;;;;;;22.13;14.33;;;0.90;99.90;;;;;;5078678;28;20440;-71
2021/03/24 06:12:49;;;;;;;20.60;13.03;;;2.30;99.90;;;;;;5077143;28;20619;-71
2021/03/24 06:15:35;;;;;;;30.73;12.07;;;4.40;99.90;;;;;;5062045;28;20419;-71
2021/03/24 06:18:25;;;;;;;22.90;13.33;;;6.00;99.90;;;;;;5080744;28;20999;-71
2021/03/24 06:21:08;;;;;;;16.80;12.80;;;7.30;99.90;;;;;;5082982;28;20899;-71
2021/03/24 06:23:47;;;;;;;21.93;13.37;;;8.30;99.90;;;;;;5076694;28;20470;-71
2021/03/24 06:26:19;;;;;;;20.67;14.60;;;8.90;99.90;;;;;;5078681;28;20422;-69
2021/03/24 06:29:09;;;;;;;23.97;13.90;;;9.50;99.90;;;;;;5080839;28;20437;-71
2021/03/24 06:31:43;;;;;;;22.90;14.20;;;10.40;99.90;;;;;;5083005;28;20468;-71
2021/03/24 06:34:51;;;;;;;21.70;14.80;;;11.10;99.90;;;;;;5081024;28;20875;-72
2021/03/24 06:37:48;;;;;;;18.23;13.00;;;11.60;99.90;;;;;;5081229;28;20790;-71
2021/03/24 06:40:37;;;;;;;17.70;13.37;;;11.90;99.90;;;;;;5079784;28;20878;-71
2021/03/24 06:43:18;;;;;;;29.03;18.63;;;12.10;99.90;;;;;;5076321;28;20434;-73
2021/03/24 06:46:08;;;;;;;17.93;13.73;;;12.70;99.90;;;;;;5081383;28;20436;-71
2021/03/24 06:48:59;;;;;;;22.83;17.43;;;13.20;99.90;;;;;;5079528;28;20427;-71
2021/03/24 06:51:46;;;;;;;35.30;26.53;;;13.90;99.90;;;;;;5077913;28;20472;-71
2021/03/24 06:54:45;;;;;;;71.03;47.90;;;13.70;99.90;;;;;;5081521;28;20426;-71
2021/03/24 06:57:19;;;;;;;26.07;18.87;;;13.70;99.90;;;;;;5077303;28;20431;-71
2021/03/24 07:00:09;;;;;;;27.80;18.27;;;13.90;99.90;;;;;;5085723;28;20413;-71
2021/03/24 07:03:15;;;;;;;24.30;16.90;;;14.20;99.90;;;;;;5075135;28;20451;-71
2021/03/24 07:05:48;;;;;;;27.30;16.77;;;14.00;99.90;;;;;;5080173;28;20415;-71
2021/03/24 07:08:35;;;;;;;23.63;16.87;;;14.30;99.90;;;;;;5079354;28;20454;-71
2021/03/24 07:11:29;;;;;;;25.37;16.83;;;14.20;99.90;;;;;;5081234;28;20858;-72
2021/03/24 07:14:21;;;;;;;27.73;15.80;;;14.10;99.90;;;;;;5081745;28;20571;-70
2021/03/24 07:17:01;;;;;;;28.40;18.40;;;13.80;99.90;;;;;;5085058;28;20430;-71
2021/03/24 07:19:45;;;;;;;31.73;16.33;;;13.00;99.90;;;;;;5086052;28;20511;-72
2021/03/24 07:22:30;;;;;;;27.67;17.50;;;12.30;99.90;;;;;;5082774;28;20797;-70
2021/03/24 07:25:24;;;;;;;25.50;17.60;;;12.10;99.90;;;;;;5041744;28;20453;-71
2021/03/24 07:28:06;;;;;;;27.83;16.77;;;11.60;99.90;;;;;;5086952;28;20459;-72
2021/03/24 07:30:44;;;;;;;27.13;17.77;;;11.50;99.90;;;;;;5084550;28;20991;-71
2021/03/24 07:33:11;;;;;;;30.47;18.17;;;11.20;99.90;;;;;;5083485;28;21269;-72
2021/03/24 07:36:01;;;;;;;29.30;17.53;;;10.60;99.90;;;;;;5084050;28;20426;-71
2021/03/24 07:38:29;;;;;;;27.17;16.43;;;10.60;99.90;;;;;;5089131;28;20410;-71
2021/03/24 07:41:13;;;;;;;35.33;17.30;;;10.80;99.90;;;;;;5078726;28;20495;-71
2021/03/24 07:44:06;;;;;;;28.30;19.43;;;11.00;99.90;;;;;;5078711;28;20430;-72
2021/03/24 07:46:56;;;;;;;28.40;16.63;;;11.10;99.90;;;;;;5085111;28;21007;-71
2021/03/24 07:49:36;;;;;;;28.93;17.20;;;11.30;99.90;;;;;;5084112;28;20441;-71
2021/03/24 07:52:32;;;;;;;27.80;16.83;;;11.50;99.90;;;;;;5081587;28;20498;-71
2021/03/24 07:55:12;;;;;;;26.43;16.40;;;11.50;99.90;;;;;;5079577;28;20957;-72
2021/03/24 07:57:49;;;;;;;27.53;17.13;;;11.60;99.90;;;;;;5086208;28;20517;-72
2021/03/24 08:00:41;;;;;;;29.43;17.67;;;11.70;99.90;;;;;;5090758;28;20562;-71
2021/03/24 08:03:15;;;;;;;27.53;17.37;;;11.80;99.90;;;;;;5085643;28;20828;-71
2021/03/24 08:06:22;;;;;;;32.03;17.37;;;12.00;99.90;;;;;;5081126;28;20438;-70
2021/03/24 08:09:09;;;;;;;31.17;16.83;;;12.20;99.90;;;;;;5085943;28;20859;-70
2021/03/24 08:12:06;;;;;;;22.50;16.40;;;12.30;99.90;;;;;;5082492;28;20484;-71
2021/03/24 08:14:59;;;;;;;27.90;17.63;;;12.40;99.90;;;;;;5089412;28;20913;-71
2021/03/24 08:18:06;;;;;;;29.83;17.37;;;12.20;99.90;;;;;;5085375;28;20433;-71
2021/03/24 08:20:37;;;;;;;27.90;17.17;;;12.30;99.90;;;;;;5086221;28;20416;-70
2021/03/24 08:23:37;;;;;;;25.10;17.03;;;12.40;99.90;;;;;;5088831;28;20441;-70
2021/03/24 08:26:09;;;;;;;24.40;16.73;;;12.80;99.90;;;;;;5044011;28;20963;-72
2021/03/24 08:28:41;;;;;;;25.10;17.20;;;13.10;99.90;;;;;;5083577;28;20435;-71
2021/03/24 08:31:46;;;;;;;27.87;17.87;;;13.00;99.90;;;;;;5081453;28;20477;-71
2021/03/24 08:34:26;;;;;;;25.60;16.90;;;13.30;99.90;;;;;;5085848;28;20449;-72
2021/03/24 08:37:01;;;;;;;22.83;17.97;;;13.30;99.90;;;;;;5088743;28;20406;-72
2021/03/24 08:40:04;;;;;;;29.83;15.93;;;13.10;99.90;;;;;;5075086;28;20471;-72
2021/03/24 08:42:51;;;;;;;26.80;16.50;;;13.20;99.90;;;;;;5082071;28;20977;-71
2021/03/24 08:45:44;;;;;;;26.80;16.03;;;13.60;99.90;;;;;;5081598;28;20429;-72
2021/03/24 08:48:15;;;;;;;28.93;17.50;;;13.60;99.90;;;;;;5081605;28;20482;-72
2021/03/24 08:50:52;;;;;;;26.30;17.57;;;13.80;99.90;;;;;;5082852;28;20478;-72
2021/03/24 08:53:44;;;;;;;24.20;15.67;;;14.00;99.90;;;;;;5080265;28;20446;-72
2021/03/24 08:56:25;;;;;;;24.27;16.53;;;14.20;99.90;;;;;;5080792;28;20417;-72
2021/03/24 08:59:23;;;;;;;25.40;17.23;;;14.10;99.90;;;;;;5094573;28;20938;-72
2021/03/24 09:02:04;;;;;;;24.30;17.83;;;14.30;99.90;;;;;;5080979;28;20453;-71
2021/03/24 09:04:40;;;;;;;26.33;17.60;;;14.20;99.90;;;;;;5081800;28;20467;-73
2021/03/24 09:07:26;;;;;;;24.77;16.30;;;14.60;99.90;;;;;;5081094;28;20418;-72
2021/03/24 09:10:28;;;;;;;28.80;16.97;;;14.50;99.90;;;;;;5080481;28;20418;-71
2021/03/24 09:13:21;;;;;;;34.53;18.77;;;14.30;99.90;;;;;;5084144;28;20954;-71
2021/03/24 09:16:21;;;;;;;24.50;17.33;;;14.70;99.90;;;;;;5082100;28;20440;-71
2021/03/24 09:18:58;;;;;;;22.73;16.77;;;15.40;99.90;;;;;;5082823;28;20431;-71
2021/03/24 09:21:28;;;;;;;24.63;16.23;;;15.30;99.90;;;;;;5080347;28;20462;-71
2021/03/24 09:24:18;;;;;;;25.13;17.10;;;15.30;99.90;;;;;;5081082;28;20452;-71
2021/03/24 09:27:07;;;;;;;38.10;17.93;;;15.30;99.90;;;;;;5080074;28;20442;-72
2021/03/24 09:29:58;;;;;;;24.50;16.37;;;15.40;99.90;;;;;;5080293;28;20411;-72
2021/03/24 09:32:35;;;;;;;33.73;17.07;;;15.00;99.90;;;;;;5079994;28;20533;-71
2021/03/24 09:35:16;;;;;;;29.20;17.07;;;15.50;99.90;;;;;;5082005;28;20450;-71
2021/03/24 09:37:54;;;;;;;21.67;16.13;;;15.50;99.90;;;;;;5080807;28;20469;-72
2021/03/24 09:40:43;;;;;;;24.90;15.70;;;15.70;99.90;;;;;;5080912;28;20452;-72
2021/03/24 09:43:29;;;;;;;24.77;16.00;;;15.90;99.90;;;;;;5077389;28;20545;-72
2021/03/24 09:46:15;;;;;;;29.40;17.03;;;16.00;99.90;;;;;;5079824;28;20434;-71
2021/03/24 09:48:52;;;;;;;20.60;14.70;;;15.80;99.90;;;;;;5079250;28;20449;-71
2021/03/24 09:51:35;;;;;;;27.87;16.27;;;15.70;99.90;;;;;;5086795;28;20471;-71
2021/03/24 09:54:15;;;;;;;26.00;16.90;;;15.70;99.90;;;;;;5079175;28;20427;-71
2021/03/24 09:56:43;;;;;;;32.83;16.73;;;15.80;99.90;;;;;;5080921;28;20509;-72
2021/03/24 09:59:30;;;;;;;27.20;17.50;;;16.10;99.90;;;;;;5077116;28;20429;-72
2021/03/24 10:02:11;;;;;;;31.03;16.40;;;16.20;99.90;;;;;;5084646;28;20446;-70
2021/03/24 10:04:46;;;;;;;24.33;16.67;;;16.00;99.90;;;;;;5084627;28;20451;-73
2021/03/24 10:07:26;;;;;;;26.03;16.73;;;16.10;99.90;;;;;;5081968;28;20421;-73
2021/03/24 10:10:19;;;;;;;23.87;16.10;;;16.00;99.90;;;;;;5079536;28;20512;-72
2021/03/24 10:12:54;;;;;;;25.97;15.47;;;16.20;99.90;;;;;;5080986;28;20529;-71
2021/03/24 10:15:59;;;;;;;21.73;15.73;;;16.20;99.90;;;;;;5080452;28;20802;-71
2021/03/24 10:18:32;;;;;;;24.70;15.00;;;16.50;99.90;;;;;;5080063;28;20437;-72
2021/03/24 10:21:18;;;;;;;27.67;16.03;;;16.50;99.90;;;;;;5075714;28;20465;-71
2021/03/24 10:23:48;;;;;;;24.10;14.83;;;16.90;99.90;;;;;;5080736;28;20498;-72
2021/03/24 10:26:28;;;;;;;24.20;16.27;;;17.20;99.90;;;;;;5081597;28;20450;-71
2021/03/24 10:29:10;;;;;;;18.90;15.07;;;17.20;99.90;;;;;;5079664;28;20735;-72
2021/03/24 10:31:42;;;;;;;21.50;14.90;;;17.70;99.90;;;;;;5091793;28;20975;-72
2021/03/24 10:34:33;;;;;;;23.33;14.93;;;17.50;99.90;;;;;;5078409;28;20789;-71
2021/03/24 10:37:23;;;;;;;26.10;16.00;;;17.80;99.90;;;;;;5071763;28;20438;-72
2021/03/24 10:40:06;;;;;;;25.20;16.43;;;17.90;99.90;;;;;;5081270;28;20418;-72
2021/03/24 10:42:38;;;;;;;32.70;16.10;;;17.70;99.90;;;;;;5078345;28;20453;-71
2021/03/24 10:45:21;;;;;;;21.37;15.50;;;17.20;99.90;;;;;;5080556;28;20422;-71
2021/03/24 10:47:56;;;;;;;25.80;16.63;;;17.10;99.90;;;;;;5080061;28;20439;-72
2021/03/24 10:50:49;;;;;;;25.43;15.57;;;16.70;99.90;;;;;;5084034;28;20827;-71
2021/03/24 10:53:22;;;;;;;22.53;14.60;;;16.80;99.90;;;;;;5083195;28;20441;-71
2021/03/24 10:56:15;;;;;;;22.90;14.27;;;17.10;99.90;;;;;;5084627;28;20789;-71
2021/03/24 10:59:06;;;;;;;23.67;15.17;;;17.20;99.90;;;;;;5085233;28;20525;-71
2021/03/24 11:02:09;;;;;;;23.37;16.87;;;16.60;99.90;;;;;;5083812;28;20481;-72
2021/03/24 11:04:38;;;;;;;24.17;15.63;;;16.70;99.90;;;;;;5084413;28;20421;-72
2021/03/24 11:07:32;;;;;;;24.77;15.20;;;16.60;99.90;;;;;;5085198;28;20441;-71
2021/03/24 11:10:25;;;;;;;23.80;14.30;;;17.10;99.90;;;;;;5085244;28;20422;-72
2021/03/24 11:13:03;;;;;;;23.43;15.63;;;17.20;99.90;;;;;;5084471;28;20476;-71
2021/03/24 11:15:37;;;;;;;26.10;16.67;;;16.70;99.90;;;;;;5083104;28;21198;-71
2021/03/24 11:18:08;;;;;;;20.20;15.50;;;17.10;99.90;;;;;;5083866;28;20436;-72
2021/03/24 11:20:47;;;;;;;25.80;18.20;;;17.30;99.90;;;;;;5083851;28;20905;-71
2021/03/24 11:23:19;;;;;;;20.87;16.60;;;17.50;99.90;;;;;;5080626;28;20499;-71
2021/03/24 11:25:56;;;;;;;20.97;15.37;;;17.60;99.90;;;;;;5083862;28;20505;-72
2021/03/24 11:28:37;;;;;;;23.80;18.20;;;17.60;99.90;;;;;;5084962;28;20430;-70
2021/03/24 11:31:14;;;;;;;27.10;17.43;;;17.20;99.90;;;;;;5083650;28;20472;-71
2021/03/24 11:33:47;;;;;;;26.20;16.00;;;17.10;99.90;;;;;;5084324;28;21107;-72
2021/03/24 11:36:31;;;;;;;24.10;17.10;;;17.00;99.90;;;;;;5083951;28;20934;-72
2021/03/24 11:39:27;;;;;;;28.40;17.80;;;16.80;99.90;;;;;;5082684;28;20431;-72
2021/03/24 11:42:17;;;;;;;30.03;17.10;;;16.80;99.90;;;;;;5082821;28;20546;-72
2021/03/24 11:44:44;;;;;;;23.17;15.90;;;17.10;99.90;;;;;;5083119;28;20438;-72
2021/03/24 11:47:13;;;;;;;23.97;16.43;;;17.10;99.90;;;;;;5084617;28;20413;-71
2021/03/24 11:50:02;;;;;;;21.50;15.43;;;17.00;99.90;;;;;;5081617;28;20444;-71
2021/03/24 11:53:05;;;;;;;22.87;16.60;;;17.10;99.90;;;;;;5081855;28;20453;-71
2021/03/24 11:55:52;;;;;;;26.70;17.07;;;16.80;99.90;;;;;;5083800;28;20433;-71
2021/03/24 11:58:23;;;;;;;23.70;16.97;;;16.90;99.90;;;;;;5084448;28;20438;-71
2021/03/24 12:01:04;;;;;;;24.17;16.03;;;16.70;99.90;;;;;;5083016;28;20441;-71
2021/03/24 12:03:52;;;;;;;21.10;14.73;;;16.60;99.90;;;;;;5083504;28;20465;-71
2021/03/24 12:06:20;;;;;;;20.43;15.10;;;16.50;99.90;;;;;;5083603;28;20445;-71
2021/03/24 12:08:53;;;;;;;22.43;16.57;;;16.20;99.90;;;;;;5083434;28;20465;-71
2021/03/24 12:11:25;;;;;;;20.10;14.80;;;16.00;99.90;;;;;;5081512;28;20466;-70
2021/03/24 12:14:20;;;;;;;25.07;16.10;;;16.30;99.90;;;;;;5083945;28;20415;-71
2021/03/24 12:16:46;;;;;;;26.03;17.00;;;16.20;99.90;;;;;;5082413;28;20434;-71
2021/03/24 12:19:28;;;;;;;25.57;16.53;;;16.10;99.90;;;;;;5080108;28;20796;-71
2021/03/24 12:22:26;;;;;;;24.50;16.90;;;16.20;99.90;;;;;;5083729;28;20207;-72
2021/03/24 12:25:13;;;;;;;22.87;16.77;;;16.00;99.90;;;;;;5084168;28;20947;-71
2021/03/24 12:27:48;;;;;;;23.60;16.40;;;15.70;99.90;;;;;;5081912;28;20480;-71
2021/03/24 12:30:46;;;;;;;26.73;16.23;;;15.70;99.90;;;;;;5082195;28;20474;-70
2021/03/24 12:33:14;;;;;;;26.43;16.80;;;15.90;99.90;;;;;;5084770;28;20437;-71
2021/03/24 12:35:41;;;;;;;29.50;17.30;;;16.10;99.90;;;;;;5081415;28;20425;-70
2021/03/24 12:38:12;;;;;;;27.60;15.40;;;16.00;99.90;;;;;;5081796;28;20769;-71
2021/03/24 12:40:55;;;;;;;23.07;15.70;;;16.00;99.90;;;;;;5081946;28;20472;-70
2021/03/24 12:43:29;;;;;;;22.30;15.57;;;15.80;99.90;;;;;;5079634;28;20443;-71
2021/03/24 12:46:05;;;;;;;22.93;15.90;;;15.50;99.90;;;;;;5084225;28;20500;-71
2021/03/24 12:48:35;;;;;;;28.73;17.40;;;15.50;99.90;;;;;;5087350;28;20434;-71
2021/03/24 12:51:17;;;;;;;31.23;17.03;;;15.50;99.90;;;;;;5080809;28;20528;-72
2021/03/24 12:54:00;;;;;;;20.77;15.57;;;15.40;99.90;;;;;;5082377;28;20793;-71
2021/03/24 12:57:06;;;;;;;29.23;17.37;;;15.10;99.90;;;;;;5082922;28;20422;-73
2021/03/24 12:59:53;;;;;;;33.27;17.00;;;14.60;99.90;;;;;;5079654;28;20419;-71
2021/03/24 13:02:32;;;;;;;27.20;17.37;;;14.60;99.90;;;;;;5080791;28;20461;-71
2021/03/24 13:05:17;;;;;;;29.13;16.33;;;14.60;99.90;;;;;;5083076;28;20430;-72
2021/03/24 13:08:05;;;;;;;26.50;16.97;;;14.70;99.90;;;;;;5081597;28;20469;-72
2021/03/24 13:10:56;;;;;;;22.70;15.70;;;14.90;99.90;;;;;;5032108;28;20571;-72
2021/03/24 13:13:41;;;;;;;25.50;16.00;;;15.00;99.90;;;;;;5081934;28;20457;-70
2021/03/24 13:16:13;;;;;;;26.23;16.30;;;15.20;99.90;;;;;;5088274;28;20415;-71
2021/03/24 13:19:05;;;;;;;25.90;16.33;;;15.30;99.90;;;;;;5081412;28;20427;-71
2021/03/24 13:21:53;;;;;;;24.90;16.80;;;15.50;99.90;;;;;;5084451;28;20437;-72